sensor_id;sensor_type;location;lat;lon;timestamp;P1;durP1;ratioP1;P2;durP2;ratioP2
9924;SDS011;5001;51.674;7.868;2022-11-15T00:01:43;10.80;;;8.10;;
9924;SDS011;5001;51.674;7.868;2022-11-15T00:04:29;12.90;;;8.47;;
9924;SDS011;5001;51.674;7.868;2022-11-15T00:07:14;11.33;;;8.67;;
9924;SDS011;5001;51.674;7.868;2022-11-15T00:10:20;10.17;;;8.97;;
9924;SDS011;5001;51.674;7.868;2022-11-15T00:13:09;10.57;;;9.23;;
9924;SDS011;5001;51.674;7.868;2022-11-15T00:15:57;11.57;;;9.13;;
9924;SDS011;5001;51.674;7.868;2022-11-15T00:18:43;12.90;;;9.53;;
9924;SDS011;5001;51.674;7.868;2022-11-15T00:21:34;12.83;;;9.83;;
9924;SDS011;5001;51.674;7.868;2022-11-15T00:24:19;11.33;;;9.07;;
9924;SDS011;5001;51.674;7.868;2022-11-15T00:27:05;12.17;;;9.27;;
9924;SDS011;5001;51.674;7.868;2022-11-15T00:29:52;11.90;;;9.63;;
9924;SDS011;5001;51.674;7.868;2022-11-15T00:32:37;14.13;;;10.33;;
9924;SDS011;5001;51.674;7.868;2022-11-15T00:35:22;12.00;;;10.13;;
9924;SDS011;5001;51.674;7.868;2022-11-15T00:38:08;10.87;;;8.97;;
9924;SDS011;5001;51.674;7.868;2022-11-15T00:40:53;13.73;;;9.40;;
9924;SDS011;5001;51.674;7.868;2022-11-15T00:43:39;14.63;;;9.73;;
9924;SDS011;5001;51.674;7.868;2022-11-15T00:46:25;12.03;;;10.00;;
9924;SDS011;5001;51.674;7.868;2022-11-15T00:49:10;13.57;;;10.27;;
9924;SDS011;5001;51.674;7.868;2022-11-15T00:51:56;15.20;;;9.93;;
9924;SDS011;5001;51.674;7.868;2022-11-15T00:54:42;13.23;;;10.67;;
9924;SDS011;5001;51.674;7.868;2022-11-15T00:57:27;12.50;;;10.10;;
9924;SDS011;5001;51.674;7.868;2022-11-15T01:00:13;14.40;;;9.90;;
9924;SDS011;5001;51.674;7.868;2022-11-15T01:03:02;13.40;;;9.67;;
9924;SDS011;5001;51.674;7.868;2022-11-15T01:05:48;11.70;;;10.00;;
9924;SDS011;5001;51.674;7.868;2022-11-15T01:08:33;13.77;;;10.10;;
9924;SDS011;5001;51.674;7.868;2022-11-15T01:11:19;14.47;;;10.53;;
9924;SDS011;5001;51.674;7.868;2022-11-15T01:14:05;12.43;;;9.67;;
9924;SDS011;5001;51.674;7.868;2022-11-15T01:16:50;16.80;;;10.20;;
9924;SDS011;5001;51.674;7.868;2022-11-15T01:19:36;12.47;;;9.67;;
9924;SDS011;5001;51.674;7.868;2022-11-15T01:22:22;12.77;;;9.23;;
9924;SDS011;5001;51.674;7.868;2022-11-15T01:25:07;12.70;;;9.87;;
9924;SDS011;5001;51.674;7.868;2022-11-15T01:27:53;10.80;;;9.30;;
9924;SDS011;5001;51.674;7.868;2022-11-15T01:30:38;16.07;;;9.13;;
9924;SDS011;5001;51.674;7.868;2022-11-15T01:33:24;15.13;;;9.60;;
9924;SDS011;5001;51.674;7.868;2022-11-15T01:36:11;11.70;;;9.83;;
9924;SDS011;5001;51.674;7.868;2022-11-15T01:38:58;12.83;;;9.30;;
9924;SDS011;5001;51.674;7.868;2022-11-15T01:41:44;11.20;;;9.23;;
9924;SDS011;5001;51.674;7.868;2022-11-15T01:47:37;13.60;;;9.57;;
9924;SDS011;5001;51.674;7.868;2022-11-15T01:50:26;12.97;;;9.43;;
9924;SDS011;5001;51.674;7.868;2022-11-15T01:53:15;12.50;;;9.73;;
9924;SDS011;5001;51.674;7.868;2022-11-15T01:56:05;12.37;;;9.17;;
9924;SDS011;5001;51.674;7.868;2022-11-15T01:58:55;12.10;;;9.03;;
9924;SDS011;5001;51.674;7.868;2022-11-15T02:01:42;11.27;;;9.43;;
9924;SDS011;5001;51.674;7.868;2022-11-15T02:04:28;13.63;;;9.00;;
9924;SDS011;5001;51.674;7.868;2022-11-15T02:07:16;12.63;;;9.07;;
9924;SDS011;5001;51.674;7.868;2022-11-15T02:10:07;14.03;;;9.03;;
9924;SDS011;5001;51.674;7.868;2022-11-15T02:12:55;11.13;;;9.33;;
9924;SDS011;5001;51.674;7.868;2022-11-15T02:15:45;13.47;;;9.50;;
9924;SDS011;5001;51.674;7.868;2022-11-15T02:34:09;14.67;;;10.10;;
9924;SDS011;5001;51.674;7.868;2022-11-15T02:39:56;14.13;;;10.50;;
9924;SDS011;5001;51.674;7.868;2022-11-15T02:42:55;13.00;;;10.33;;
9924;SDS011;5001;51.674;7.868;2022-11-15T02:46:06;15.03;;;10.63;;
9924;SDS011;5001;51.674;7.868;2022-11-15T02:49:00;16.70;;;10.90;;
9924;SDS011;5001;51.674;7.868;2022-11-15T02:51:47;14.23;;;10.40;;
9924;SDS011;5001;51.674;7.868;2022-11-15T02:54:35;13.80;;;10.10;;
9924;SDS011;5001;51.674;7.868;2022-11-15T02:57:24;13.60;;;9.63;;
9924;SDS011;5001;51.674;7.868;2022-11-15T03:00:34;12.00;;;9.63;;
9924;SDS011;5001;51.674;7.868;2022-11-15T03:03:42;11.10;;;9.77;;
9924;SDS011;5001;51.674;7.868;2022-11-15T03:09:50;17.37;;;9.73;;
9924;SDS011;5001;51.674;7.868;2022-11-15T03:15:42;10.70;;;8.67;;
9924;SDS011;5001;51.674;7.868;2022-11-15T03:18:37;12.53;;;9.77;;
9924;SDS011;5001;51.674;7.868;2022-11-15T03:21:26;11.70;;;9.43;;
9924;SDS011;5001;51.674;7.868;2022-11-15T03:24:15;13.57;;;9.43;;
9924;SDS011;5001;51.674;7.868;2022-11-15T03:27:09;16.20;;;9.57;;
9924;SDS011;5001;51.674;7.868;2022-11-15T03:30:00;10.63;;;9.17;;
9924;SDS011;5001;51.674;7.868;2022-11-15T03:32:51;13.80;;;9.77;;
9924;SDS011;5001;51.674;7.868;2022-11-15T03:35:42;14.13;;;9.73;;
9924;SDS011;5001;51.674;7.868;2022-11-15T03:38:30;14.47;;;10.00;;
9924;SDS011;5001;51.674;7.868;2022-11-15T03:41:23;15.47;;;9.23;;
9924;SDS011;5001;51.674;7.868;2022-11-15T03:50:34;11.60;;;9.73;;
9924;SDS011;5001;51.674;7.868;2022-11-15T03:53:19;14.87;;;10.40;;
9924;SDS011;5001;51.674;7.868;2022-11-15T03:56:05;15.03;;;11.30;;
9924;SDS011;5001;51.674;7.868;2022-11-15T03:58:51;15.13;;;9.50;;
9924;SDS011;5001;51.674;7.868;2022-11-15T04:01:36;16.10;;;9.27;;
9924;SDS011;5001;51.674;7.868;2022-11-15T04:04:21;11.07;;;9.53;;
9924;SDS011;5001;51.674;7.868;2022-11-15T04:07:07;11.43;;;9.30;;
9924;SDS011;5001;51.674;7.868;2022-11-15T04:09:53;14.33;;;9.80;;
9924;SDS011;5001;51.674;7.868;2022-11-15T04:12:47;11.20;;;8.90;;
9924;SDS011;5001;51.674;7.868;2022-11-15T04:15:33;11.13;;;9.33;;
9924;SDS011;5001;51.674;7.868;2022-11-15T04:18:19;15.37;;;10.80;;
9924;SDS011;5001;51.674;7.868;2022-11-15T04:21:04;11.27;;;9.60;;
9924;SDS011;5001;51.674;7.868;2022-11-15T04:24:09;13.57;;;10.20;;
9924;SDS011;5001;51.674;7.868;2022-11-15T04:26:57;12.80;;;10.27;;
9924;SDS011;5001;51.674;7.868;2022-11-15T04:29:43;16.03;;;10.70;;
9924;SDS011;5001;51.674;7.868;2022-11-15T04:32:29;16.67;;;10.53;;
9924;SDS011;5001;51.674;7.868;2022-11-15T04:35:14;12.27;;;9.50;;
9924;SDS011;5001;51.674;7.868;2022-11-15T04:38:00;15.30;;;9.50;;
9924;SDS011;5001;51.674;7.868;2022-11-15T04:40:49;9.83;;;8.53;;
9924;SDS011;5001;51.674;7.868;2022-11-15T04:43:34;12.97;;;9.63;;
9924;SDS011;5001;51.674;7.868;2022-11-15T04:46:20;15.90;;;9.60;;
9924;SDS011;5001;51.674;7.868;2022-11-15T04:49:06;11.37;;;9.00;;
9924;SDS011;5001;51.674;7.868;2022-11-15T04:51:52;13.20;;;10.23;;
9924;SDS011;5001;51.674;7.868;2022-11-15T04:54:40;14.90;;;9.07;;
9924;SDS011;5001;51.674;7.868;2022-11-15T04:57:27;11.90;;;8.67;;
9924;SDS011;5001;51.674;7.868;2022-11-15T05:00:13;12.77;;;8.53;;
9924;SDS011;5001;51.674;7.868;2022-11-15T05:03:00;11.37;;;7.90;;
9924;SDS011;5001;51.674;7.868;2022-11-15T05:06:05;12.63;;;9.33;;
9924;SDS011;5001;51.674;7.868;2022-11-15T05:08:51;9.23;;;8.23;;
9924;SDS011;5001;51.674;7.868;2022-11-15T05:11:37;8.73;;;7.73;;
9924;SDS011;5001;51.674;7.868;2022-11-15T05:14:23;13.43;;;8.30;;
9924;SDS011;5001;51.674;7.868;2022-11-15T05:17:08;9.93;;;7.50;;
9924;SDS011;5001;51.674;7.868;2022-11-15T05:19:54;10.57;;;8.30;;
9924;SDS011;5001;51.674;7.868;2022-11-15T05:22:39;8.43;;;7.30;;
9924;SDS011;5001;51.674;7.868;2022-11-15T05:25:25;9.13;;;7.23;;
9924;SDS011;5001;51.674;7.868;2022-11-15T05:28:10;8.37;;;7.47;;
9924;SDS011;5001;51.674;7.868;2022-11-15T05:31:09;10.87;;;8.23;;
9924;SDS011;5001;51.674;7.868;2022-11-15T05:33:56;8.63;;;7.83;;
9924;SDS011;5001;51.674;7.868;2022-11-15T05:36:44;8.97;;;7.67;;
9924;SDS011;5001;51.674;7.868;2022-11-15T05:39:30;8.87;;;7.97;;
9924;SDS011;5001;51.674;7.868;2022-11-15T05:42:15;9.40;;;8.03;;
9924;SDS011;5001;51.674;7.868;2022-11-15T05:45:02;8.60;;;7.40;;
9924;SDS011;5001;51.674;7.868;2022-11-15T05:47:50;10.63;;;8.00;;
9924;SDS011;5001;51.674;7.868;2022-11-15T05:50:38;9.60;;;8.10;;
9924;SDS011;5001;51.674;7.868;2022-11-15T05:53:27;9.63;;;7.80;;
9924;SDS011;5001;51.674;7.868;2022-11-15T05:56:13;9.43;;;7.23;;
9924;SDS011;5001;51.674;7.868;2022-11-15T05:58:59;8.37;;;7.17;;
9924;SDS011;5001;51.674;7.868;2022-11-15T06:01:45;8.73;;;7.27;;
9924;SDS011;5001;51.674;7.868;2022-11-15T06:04:30;7.57;;;6.43;;
9924;SDS011;5001;51.674;7.868;2022-11-15T06:07:16;11.03;;;6.40;;
9924;SDS011;5001;51.674;7.868;2022-11-15T06:10:02;7.07;;;6.10;;
9924;SDS011;5001;51.674;7.868;2022-11-15T06:12:48;7.80;;;5.70;;
9924;SDS011;5001;51.674;7.868;2022-11-15T06:15:44;9.77;;;6.23;;
9924;SDS011;5001;51.674;7.868;2022-11-15T06:18:31;5.73;;;5.13;;
9924;SDS011;5001;51.674;7.868;2022-11-15T06:21:18;7.73;;;6.00;;
9924;SDS011;5001;51.674;7.868;2022-11-15T06:24:04;6.73;;;5.80;;
9924;SDS011;5001;51.674;7.868;2022-11-15T06:26:50;8.20;;;5.83;;
9924;SDS011;5001;51.674;7.868;2022-11-15T06:29:36;7.07;;;5.60;;
9924;SDS011;5001;51.674;7.868;2022-11-15T06:32:22;7.33;;;5.47;;
9924;SDS011;5001;51.674;7.868;2022-11-15T06:35:07;10.17;;;7.07;;
9924;SDS011;5001;51.674;7.868;2022-11-15T06:37:53;6.50;;;5.77;;
9924;SDS011;5001;51.674;7.868;2022-11-15T06:40:39;7.80;;;5.33;;
9924;SDS011;5001;51.674;7.868;2022-11-15T06:43:25;6.27;;;5.67;;
9924;SDS011;5001;51.674;7.868;2022-11-15T06:46:10;6.07;;;5.43;;
9924;SDS011;5001;51.674;7.868;2022-11-15T06:48:56;7.87;;;6.03;;
9924;SDS011;5001;51.674;7.868;2022-11-15T06:51:41;6.37;;;5.73;;
9924;SDS011;5001;51.674;7.868;2022-11-15T06:54:27;7.93;;;5.53;;
9924;SDS011;5001;51.674;7.868;2022-11-15T06:57:12;5.43;;;4.73;;
9924;SDS011;5001;51.674;7.868;2022-11-15T06:59:58;6.73;;;4.97;;
9924;SDS011;5001;51.674;7.868;2022-11-15T07:02:44;6.40;;;5.17;;
9924;SDS011;5001;51.674;7.868;2022-11-15T07:05:30;5.60;;;5.10;;
9924;SDS011;5001;51.674;7.868;2022-11-15T07:08:15;6.70;;;5.43;;
9924;SDS011;5001;51.674;7.868;2022-11-15T07:11:03;5.67;;;4.87;;
9924;SDS011;5001;51.674;7.868;2022-11-15T07:13:51;5.67;;;4.77;;
9924;SDS011;5001;51.674;7.868;2022-11-15T07:16:36;8.53;;;4.70;;
9924;SDS011;5001;51.674;7.868;2022-11-15T07:19:22;5.47;;;4.70;;
9924;SDS011;5001;51.674;7.868;2022-11-15T07:22:08;5.83;;;4.20;;
9924;SDS011;5001;51.674;7.868;2022-11-15T07:24:53;7.83;;;4.50;;
9924;SDS011;5001;51.674;7.868;2022-11-15T07:27:39;4.73;;;3.80;;
9924;SDS011;5001;51.674;7.868;2022-11-15T07:30:25;5.23;;;4.10;;
9924;SDS011;5001;51.674;7.868;2022-11-15T07:33:14;6.03;;;4.23;;
9924;SDS011;5001;51.674;7.868;2022-11-15T07:36:00;6.27;;;4.00;;
9924;SDS011;5001;51.674;7.868;2022-11-15T07:38:48;7.10;;;3.80;;
9924;SDS011;5001;51.674;7.868;2022-11-15T07:41:34;4.80;;;3.57;;
9924;SDS011;5001;51.674;7.868;2022-11-15T07:44:20;3.87;;;3.37;;
9924;SDS011;5001;51.674;7.868;2022-11-15T07:47:05;5.93;;;2.80;;
9924;SDS011;5001;51.674;7.868;2022-11-15T07:49:51;2.73;;;2.53;;
9924;SDS011;5001;51.674;7.868;2022-11-15T07:52:37;4.13;;;2.40;;
9924;SDS011;5001;51.674;7.868;2022-11-15T07:55:26;2.60;;;2.40;;
9924;SDS011;5001;51.674;7.868;2022-11-15T07:58:14;2.50;;;2.30;;
9924;SDS011;5001;51.674;7.868;2022-11-15T08:01:03;3.43;;;2.20;;
9924;SDS011;5001;51.674;7.868;2022-11-15T08:03:49;5.63;;;2.33;;
9924;SDS011;5001;51.674;7.868;2022-11-15T08:06:35;4.70;;;2.13;;
9924;SDS011;5001;51.674;7.868;2022-11-15T08:09:21;2.57;;;2.00;;
9924;SDS011;5001;51.674;7.868;2022-11-15T08:12:06;2.33;;;2.13;;
9924;SDS011;5001;51.674;7.868;2022-11-15T08:14:52;3.00;;;2.00;;
9924;SDS011;5001;51.674;7.868;2022-11-15T08:17:37;2.47;;;2.27;;
9924;SDS011;5001;51.674;7.868;2022-11-15T08:20:23;2.23;;;2.00;;
9924;SDS011;5001;51.674;7.868;2022-11-15T08:23:10;3.00;;;2.17;;
9924;SDS011;5001;51.674;7.868;2022-11-15T08:26:01;2.77;;;1.93;;
9924;SDS011;5001;51.674;7.868;2022-11-15T08:28:48;2.50;;;1.73;;
9924;SDS011;5001;51.674;7.868;2022-11-15T08:31:34;5.80;;;2.00;;
9924;SDS011;5001;51.674;7.868;2022-11-15T08:34:21;3.00;;;1.77;;
9924;SDS011;5001;51.674;7.868;2022-11-15T08:37:07;3.37;;;2.70;;
9924;SDS011;5001;51.674;7.868;2022-11-15T08:39:52;4.60;;;1.87;;
9924;SDS011;5001;51.674;7.868;2022-11-15T08:42:38;3.20;;;2.10;;
9924;SDS011;5001;51.674;7.868;2022-11-15T08:45:24;3.70;;;3.40;;
9924;SDS011;5001;51.674;7.868;2022-11-15T08:48:09;2.17;;;1.70;;
9924;SDS011;5001;51.674;7.868;2022-11-15T08:50:55;2.47;;;1.93;;
9924;SDS011;5001;51.674;7.868;2022-11-15T08:53:41;2.43;;;1.80;;
9924;SDS011;5001;51.674;7.868;2022-11-15T08:56:27;2.03;;;1.70;;
9924;SDS011;5001;51.674;7.868;2022-11-15T08:59:12;2.25;;;1.58;;
9924;SDS011;5001;51.674;7.868;2022-11-15T09:01:58;2.30;;;1.52;;
9924;SDS011;5001;51.674;7.868;2022-11-15T09:04:43;3.30;;;2.63;;
9924;SDS011;5001;51.674;7.868;2022-11-15T09:07:29;1.77;;;1.52;;
9924;SDS011;5001;51.674;7.868;2022-11-15T09:10:15;2.78;;;1.65;;
9924;SDS011;5001;51.674;7.868;2022-11-15T09:13:01;3.40;;;2.15;;
9924;SDS011;5001;51.674;7.868;2022-11-15T09:15:47;2.25;;;2.00;;
9924;SDS011;5001;51.674;7.868;2022-11-15T09:18:32;3.15;;;1.48;;
9924;SDS011;5001;51.674;7.868;2022-11-15T09:21:18;1.55;;;1.40;;
9924;SDS011;5001;51.674;7.868;2022-11-15T09:24:04;1.77;;;1.58;;
9924;SDS011;5001;51.674;7.868;2022-11-15T09:26:50;2.20;;;1.48;;
9924;SDS011;5001;51.674;7.868;2022-11-15T09:29:36;4.90;;;1.83;;
9924;SDS011;5001;51.674;7.868;2022-11-15T09:32:21;1.63;;;1.38;;
9924;SDS011;5001;51.674;7.868;2022-11-15T09:35:07;4.65;;;1.50;;
9924;SDS011;5001;51.674;7.868;2022-11-15T09:37:53;2.17;;;1.25;;
9924;SDS011;5001;51.674;7.868;2022-11-15T09:40:40;2.65;;;1.30;;
9924;SDS011;5001;51.674;7.868;2022-11-15T09:43:37;1.73;;;1.42;;
9924;SDS011;5001;51.674;7.868;2022-11-15T09:49:13;1.60;;;1.13;;
9924;SDS011;5001;51.674;7.868;2022-11-15T09:52:03;1.10;;;0.98;;
9924;SDS011;5001;51.674;7.868;2022-11-15T09:54:34;2.65;;;1.20;;
9924;SDS011;5001;51.674;7.868;2022-11-15T09:57:20;2.15;;;1.38;;
9924;SDS011;5001;51.674;7.868;2022-11-15T10:06:05;1.50;;;1.20;;
9924;SDS011;5001;51.674;7.868;2022-11-15T10:11:18;1.60;;;1.30;;
9924;SDS011;5001;51.674;7.868;2022-11-15T10:14:17;2.00;;;1.10;;
9924;SDS011;5001;51.674;7.868;2022-11-15T10:16:53;2.55;;;1.20;;
9924;SDS011;5001;51.674;7.868;2022-11-15T10:27:34;1.45;;;1.00;;
9924;SDS011;5001;51.674;7.868;2022-11-15T10:30:02;1.20;;;1.10;;
9924;SDS011;5001;51.674;7.868;2022-11-15T10:32:36;2.63;;;1.80;;
9924;SDS011;5001;51.674;7.868;2022-11-15T10:35:26;1.40;;;1.25;;
9924;SDS011;5001;51.674;7.868;2022-11-15T10:38:01;2.47;;;1.50;;
9924;SDS011;5001;51.674;7.868;2022-11-15T10:40:35;1.92;;;1.17;;
9924;SDS011;5001;51.674;7.868;2022-11-15T10:45:42;1.10;;;1.00;;
9924;SDS011;5001;51.674;7.868;2022-11-15T10:56:11;2.03;;;0.90;;
9924;SDS011;5001;51.674;7.868;2022-11-15T10:58:42;4.18;;;1.58;;
9924;SDS011;5001;51.674;7.868;2022-11-15T11:01:18;1.67;;;1.33;;
9924;SDS011;5001;51.674;7.868;2022-11-15T11:04:01;2.20;;;1.30;;
9924;SDS011;5001;51.674;7.868;2022-11-15T11:06:29;2.50;;;2.03;;
9924;SDS011;5001;51.674;7.868;2022-11-15T11:09:00;1.80;;;1.05;;
9924;SDS011;5001;51.674;7.868;2022-11-15T11:11:45;2.75;;;1.25;;
9924;SDS011;5001;51.674;7.868;2022-11-15T11:14:22;1.20;;;1.10;;
9924;SDS011;5001;51.674;7.868;2022-11-15T11:22:25;1.25;;;1.10;;
9924;SDS011;5001;51.674;7.868;2022-11-15T11:30:26;2.25;;;1.20;;
9924;SDS011;5001;51.674;7.868;2022-11-15T11:53:11;1.40;;;1.20;;
9924;SDS011;5001;51.674;7.868;2022-11-15T11:55:18;1.73;;;1.40;;
9924;SDS011;5001;51.674;7.868;2022-11-15T12:02:54;2.45;;;1.20;;
9924;SDS011;5001;51.674;7.868;2022-11-15T12:05:35;2.10;;;1.58;;
9924;SDS011;5001;51.674;7.868;2022-11-15T12:08:20;1.48;;;1.33;;
9924;SDS011;5001;51.674;7.868;2022-11-15T12:10:52;1.70;;;1.30;;
9924;SDS011;5001;51.674;7.868;2022-11-15T12:13:28;1.77;;;1.40;;
9924;SDS011;5001;51.674;7.868;2022-11-15T12:16:05;2.13;;;1.50;;
9924;SDS011;5001;51.674;7.868;2022-11-15T12:18:44;1.77;;;1.10;;
9924;SDS011;5001;51.674;7.868;2022-11-15T12:21:18;2.83;;;1.42;;
9924;SDS011;5001;51.674;7.868;2022-11-15T12:23:58;2.42;;;1.58;;
9924;SDS011;5001;51.674;7.868;2022-11-15T12:26:38;6.20;;;1.60;;
9924;SDS011;5001;51.674;7.868;2022-11-15T12:29:16;2.90;;;1.33;;
9924;SDS011;5001;51.674;7.868;2022-11-15T12:31:49;3.05;;;1.08;;
9924;SDS011;5001;51.674;7.868;2022-11-15T12:36:49;2.05;;;1.27;;
9924;SDS011;5001;51.674;7.868;2022-11-15T12:39:17;3.03;;;1.42;;
9924;SDS011;5001;51.674;7.868;2022-11-15T12:45:22;1.75;;;1.40;;
9924;SDS011;5001;51.674;7.868;2022-11-15T12:47:24;1.30;;;1.10;;
9924;SDS011;5001;51.674;7.868;2022-11-15T12:49:52;3.53;;;1.42;;
9924;SDS011;5001;51.674;7.868;2022-11-15T12:52:19;1.30;;;1.20;;
9924;SDS011;5001;51.674;7.868;2022-11-15T12:54:50;1.65;;;1.23;;
9924;SDS011;5001;51.674;7.868;2022-11-15T13:02:41;1.88;;;1.42;;
9924;SDS011;5001;51.674;7.868;2022-11-15T13:10:32;1.60;;;1.30;;
9924;SDS011;5001;51.674;7.868;2022-11-15T13:13:41;4.72;;;1.70;;
9924;SDS011;5001;51.674;7.868;2022-11-15T13:16:08;1.65;;;1.40;;
9924;SDS011;5001;51.674;7.868;2022-11-15T13:18:37;1.95;;;1.27;;
9924;SDS011;5001;51.674;7.868;2022-11-15T13:21:18;2.13;;;1.15;;
9924;SDS011;5001;51.674;7.868;2022-11-15T13:24:14;1.92;;;1.38;;
9924;SDS011;5001;51.674;7.868;2022-11-15T13:26:42;2.42;;;1.10;;
9924;SDS011;5001;51.674;7.868;2022-11-15T13:29:16;2.10;;;1.55;;
9924;SDS011;5001;51.674;7.868;2022-11-15T13:31:45;4.72;;;1.30;;
9924;SDS011;5001;51.674;7.868;2022-11-15T13:39:48;2.92;;;1.48;;
9924;SDS011;5001;51.674;7.868;2022-11-15T13:42:19;1.55;;;1.08;;
9924;SDS011;5001;51.674;7.868;2022-11-15T13:45:00;3.38;;;1.40;;
9924;SDS011;5001;51.674;7.868;2022-11-15T13:47:30;2.08;;;1.20;;
9924;SDS011;5001;51.674;7.868;2022-11-15T13:49:58;2.78;;;1.17;;
9924;SDS011;5001;51.674;7.868;2022-11-15T13:52:28;3.90;;;1.33;;
9924;SDS011;5001;51.674;7.868;2022-11-15T13:55:02;1.80;;;1.10;;
9924;SDS011;5001;51.674;7.868;2022-11-15T13:57:49;3.30;;;1.58;;
9924;SDS011;5001;51.674;7.868;2022-11-15T14:02:55;3.00;;;1.50;;
9924;SDS011;5001;51.674;7.868;2022-11-15T14:05:24;2.30;;;1.10;;
9924;SDS011;5001;51.674;7.868;2022-11-15T14:07:55;2.10;;;1.20;;
9924;SDS011;5001;51.674;7.868;2022-11-15T14:12:56;3.40;;;1.00;;
9924;SDS011;5001;51.674;7.868;2022-11-15T14:17:58;2.50;;;1.23;;
9924;SDS011;5001;51.674;7.868;2022-11-15T14:20:33;2.90;;;1.37;;
9924;SDS011;5001;51.674;7.868;2022-11-15T14:23:03;2.17;;;1.33;;
9924;SDS011;5001;51.674;7.868;2022-11-15T14:25:55;2.40;;;1.30;;
9924;SDS011;5001;51.674;7.868;2022-11-15T14:30:51;7.07;;;1.50;;
9924;SDS011;5001;51.674;7.868;2022-11-15T14:36:12;3.80;;;1.42;;
9924;SDS011;5001;51.674;7.868;2022-11-15T14:38:41;2.77;;;1.40;;
9924;SDS011;5001;51.674;7.868;2022-11-15T14:43:47;4.50;;;1.30;;
9924;SDS011;5001;51.674;7.868;2022-11-15T14:46:14;3.63;;;1.30;;
9924;SDS011;5001;51.674;7.868;2022-11-15T14:48:41;5.57;;;1.30;;
9924;SDS011;5001;51.674;7.868;2022-11-15T14:51:12;1.60;;;1.27;;
9924;SDS011;5001;51.674;7.868;2022-11-15T14:53:42;5.97;;;1.50;;
9924;SDS011;5001;51.674;7.868;2022-11-15T14:56:10;4.60;;;1.60;;
9924;SDS011;5001;51.674;7.868;2022-11-15T14:58:37;8.43;;;2.85;;
9924;SDS011;5001;51.674;7.868;2022-11-15T15:03:43;8.27;;;3.63;;
9924;SDS011;5001;51.674;7.868;2022-11-15T15:06:10;4.07;;;2.77;;
9924;SDS011;5001;51.674;7.868;2022-11-15T15:08:43;3.50;;;2.00;;
9924;SDS011;5001;51.674;7.868;2022-11-15T15:11:12;3.20;;;1.73;;
9924;SDS011;5001;51.674;7.868;2022-11-15T15:13:45;3.87;;;2.57;;
9924;SDS011;5001;51.674;7.868;2022-11-15T15:16:12;5.60;;;3.17;;
9924;SDS011;5001;51.674;7.868;2022-11-15T15:18:38;3.07;;;2.10;;
9924;SDS011;5001;51.674;7.868;2022-11-15T15:21:18;3.90;;;2.10;;
9924;SDS011;5001;51.674;7.868;2022-11-15T15:24:00;2.30;;;2.00;;
9924;SDS011;5001;51.674;7.868;2022-11-15T15:26:28;3.93;;;2.00;;
9924;SDS011;5001;51.674;7.868;2022-11-15T15:28:55;3.80;;;2.00;;
9924;SDS011;5001;51.674;7.868;2022-11-15T15:31:22;4.60;;;2.00;;
9924;SDS011;5001;51.674;7.868;2022-11-15T15:33:49;4.17;;;1.60;;
9924;SDS011;5001;51.674;7.868;2022-11-15T15:36:17;5.77;;;2.10;;
9924;SDS011;5001;51.674;7.868;2022-11-15T15:38:45;2.10;;;1.90;;
9924;SDS011;5001;51.674;7.868;2022-11-15T15:41:16;3.57;;;2.07;;
9924;SDS011;5001;51.674;7.868;2022-11-15T15:43:43;5.57;;;3.67;;
9924;SDS011;5001;51.674;7.868;2022-11-15T15:46:11;6.97;;;4.60;;
9924;SDS011;5001;51.674;7.868;2022-11-15T15:48:40;10.53;;;4.57;;
9924;SDS011;5001;51.674;7.868;2022-11-15T15:51:07;3.50;;;2.57;;
9924;SDS011;5001;51.674;7.868;2022-11-15T15:53:43;4.53;;;2.90;;
9924;SDS011;5001;51.674;7.868;2022-11-15T15:56:10;4.43;;;2.43;;
9924;SDS011;5001;51.674;7.868;2022-11-15T15:58:38;4.70;;;2.33;;
9924;SDS011;5001;51.674;7.868;2022-11-15T16:01:04;2.37;;;1.90;;
9924;SDS011;5001;51.674;7.868;2022-11-15T16:03:32;1.87;;;1.67;;
9924;SDS011;5001;51.674;7.868;2022-11-15T16:05:59;4.40;;;2.10;;
9924;SDS011;5001;51.674;7.868;2022-11-15T16:08:27;2.67;;;1.77;;
9924;SDS011;5001;51.674;7.868;2022-11-15T16:11:13;6.77;;;2.70;;
9924;SDS011;5001;51.674;7.868;2022-11-15T16:13:40;4.37;;;1.87;;
9924;SDS011;5001;51.674;7.868;2022-11-15T16:16:07;3.23;;;1.83;;
9924;SDS011;5001;51.674;7.868;2022-11-15T16:18:39;3.77;;;1.90;;
9924;SDS011;5001;51.674;7.868;2022-11-15T16:21:07;2.50;;;1.77;;
9924;SDS011;5001;51.674;7.868;2022-11-15T16:23:34;5.40;;;1.53;;
9924;SDS011;5001;51.674;7.868;2022-11-15T16:26:01;4.23;;;2.00;;
9924;SDS011;5001;51.674;7.868;2022-11-15T16:28:30;2.87;;;1.87;;
9924;SDS011;5001;51.674;7.868;2022-11-15T16:31:07;3.40;;;1.80;;
9924;SDS011;5001;51.674;7.868;2022-11-15T16:33:36;5.97;;;2.10;;
9924;SDS011;5001;51.674;7.868;2022-11-15T16:36:12;7.93;;;2.10;;
9924;SDS011;5001;51.674;7.868;2022-11-15T16:38:55;3.23;;;2.00;;
9924;SDS011;5001;51.674;7.868;2022-11-15T16:41:22;3.77;;;2.13;;
9924;SDS011;5001;51.674;7.868;2022-11-15T16:43:49;3.27;;;1.80;;
9924;SDS011;5001;51.674;7.868;2022-11-15T16:46:20;6.77;;;2.47;;
9924;SDS011;5001;51.674;7.868;2022-11-15T16:48:49;2.70;;;1.83;;
9924;SDS011;5001;51.674;7.868;2022-11-15T16:51:16;4.80;;;1.63;;
9924;SDS011;5001;51.674;7.868;2022-11-15T16:53:43;4.30;;;2.87;;
9924;SDS011;5001;51.674;7.868;2022-11-15T16:56:26;6.13;;;4.00;;
9924;SDS011;5001;51.674;7.868;2022-11-15T16:58:56;4.37;;;2.53;;
9924;SDS011;5001;51.674;7.868;2022-11-15T17:01:25;4.30;;;1.83;;
9924;SDS011;5001;51.674;7.868;2022-11-15T17:03:54;2.83;;;2.20;;
9924;SDS011;5001;51.674;7.868;2022-11-15T17:06:21;3.10;;;2.30;;
9924;SDS011;5001;51.674;7.868;2022-11-15T17:08:48;4.77;;;2.27;;
9924;SDS011;5001;51.674;7.868;2022-11-15T17:11:19;4.40;;;2.00;;
9924;SDS011;5001;51.674;7.868;2022-11-15T17:13:47;3.73;;;1.90;;
9924;SDS011;5001;51.674;7.868;2022-11-15T17:16:15;3.53;;;2.00;;
9924;SDS011;5001;51.674;7.868;2022-11-15T17:18:43;3.90;;;2.30;;
9924;SDS011;5001;51.674;7.868;2022-11-15T17:21:15;3.43;;;1.73;;
9924;SDS011;5001;51.674;7.868;2022-11-15T17:23:43;4.13;;;2.40;;
9924;SDS011;5001;51.674;7.868;2022-11-15T17:26:11;5.97;;;2.17;;
9924;SDS011;5001;51.674;7.868;2022-11-15T17:28:59;3.40;;;1.83;;
9924;SDS011;5001;51.674;7.868;2022-11-15T17:31:26;2.97;;;2.07;;
9924;SDS011;5001;51.674;7.868;2022-11-15T17:33:56;3.67;;;2.27;;
9924;SDS011;5001;51.674;7.868;2022-11-15T17:36:23;3.93;;;2.23;;
9924;SDS011;5001;51.674;7.868;2022-11-15T17:38:50;4.00;;;2.30;;
9924;SDS011;5001;51.674;7.868;2022-11-15T17:41:24;6.13;;;2.37;;
9924;SDS011;5001;51.674;7.868;2022-11-15T17:43:51;3.63;;;2.67;;
9924;SDS011;5001;51.674;7.868;2022-11-15T17:46:19;6.70;;;2.30;;
9924;SDS011;5001;51.674;7.868;2022-11-15T17:48:46;5.90;;;3.63;;
9924;SDS011;5001;51.674;7.868;2022-11-15T17:51:14;7.20;;;4.10;;
9924;SDS011;5001;51.674;7.868;2022-11-15T17:53:43;7.73;;;3.77;;
9924;SDS011;5001;51.674;7.868;2022-11-15T17:56:12;5.97;;;3.90;;
9924;SDS011;5001;51.674;7.868;2022-11-15T17:58:45;5.60;;;3.27;;
9924;SDS011;5001;51.674;7.868;2022-11-15T18:01:17;8.43;;;2.90;;
9924;SDS011;5001;51.674;7.868;2022-11-15T18:03:45;4.13;;;2.67;;
9924;SDS011;5001;51.674;7.868;2022-11-15T18:06:12;5.43;;;2.70;;
9924;SDS011;5001;51.674;7.868;2022-11-15T18:08:40;3.03;;;2.43;;
9924;SDS011;5001;51.674;7.868;2022-11-15T18:11:10;4.73;;;2.30;;
9924;SDS011;5001;51.674;7.868;2022-11-15T18:13:39;3.90;;;2.47;;
9924;SDS011;5001;51.674;7.868;2022-11-15T18:16:09;3.37;;;2.30;;
9924;SDS011;5001;51.674;7.868;2022-11-15T18:18:38;2.90;;;2.53;;
9924;SDS011;5001;51.674;7.868;2022-11-15T18:21:07;10.37;;;7.67;;
9924;SDS011;5001;51.674;7.868;2022-11-15T18:23:43;9.03;;;6.90;;
9924;SDS011;5001;51.674;7.868;2022-11-15T18:26:12;27.30;;;17.47;;
9924;SDS011;5001;51.674;7.868;2022-11-15T18:28:41;86.13;;;56.43;;
9924;SDS011;5001;51.674;7.868;2022-11-15T18:31:12;17.43;;;13.53;;
9924;SDS011;5001;51.674;7.868;2022-11-15T18:33:42;27.07;;;24.27;;
9924;SDS011;5001;51.674;7.868;2022-11-15T18:36:12;15.17;;;12.07;;
9924;SDS011;5001;51.674;7.868;2022-11-15T18:38:41;11.23;;;7.73;;
9924;SDS011;5001;51.674;7.868;2022-11-15T18:43:37;20.53;;;16.03;;
9924;SDS011;5001;51.674;7.868;2022-11-15T18:48:37;9.57;;;5.40;;
9924;SDS011;5001;51.674;7.868;2022-11-15T18:51:06;6.73;;;3.97;;
9924;SDS011;5001;51.674;7.868;2022-11-15T18:53:34;5.50;;;3.70;;
9924;SDS011;5001;51.674;7.868;2022-11-15T18:56:03;3.97;;;2.80;;